createdAt,value
2018-08-17T00:01:19.776Z,17.50
2018-08-17T00:03:47.552Z,17.40
2018-08-17T00:06:15.628Z,17.40
2018-08-17T00:08:43.411Z,17.40
2018-08-17T00:11:11.370Z,17.40
2018-08-17T00:13:39.321Z,17.30
2018-08-17T00:16:07.758Z,17.30
2018-08-17T00:18:35.599Z,17.30
2018-08-17T00:21:04.451Z,17.00
2018-08-17T00:23:32.326Z,16.70
2018-08-17T00:26:00.318Z,16.60
2018-08-17T00:28:28.125Z,16.70
2018-08-17T00:30:56.090Z,16.80
2018-08-17T00:33:24.641Z,16.90
2018-08-17T00:35:52.430Z,16.90
2018-08-17T00:38:20.207Z,16.90
2018-08-17T00:40:48.150Z,17.00
2018-08-17T00:43:16.585Z,17.00
2018-08-17T00:45:44.347Z,16.90
2018-08-17T00:48:13.164Z,16.90
2018-08-17T00:50:41.674Z,16.90
2018-08-17T00:53:09.377Z,16.90
2018-08-17T00:55:37.085Z,16.80
2018-08-17T00:58:05.014Z,16.80
2018-08-17T01:00:34.044Z,16.80
2018-08-17T01:03:02.055Z,16.70
2018-08-17T01:05:29.804Z,16.70
2018-08-17T01:07:58.311Z,16.60
2018-08-17T01:10:26.359Z,16.50
2018-08-17T01:12:54.110Z,16.50
2018-08-17T01:15:21.938Z,16.50
2018-08-17T01:17:49.955Z,16.50
2018-08-17T01:20:17.922Z,16.50
2018-08-17T01:22:45.799Z,16.50
2018-08-17T01:25:13.510Z,16.50
2018-08-17T01:27:41.418Z,16.50
2018-08-17T01:30:09.560Z,16.50
2018-08-17T01:32:37.743Z,16.50
2018-08-17T01:35:06.568Z,16.40
2018-08-17T01:37:34.409Z,16.40
2018-08-17T01:40:02.467Z,16.40
2018-08-17T01:42:30.478Z,16.40
2018-08-17T01:44:58.332Z,16.30
2018-08-17T01:47:26.059Z,16.30
2018-08-17T01:49:53.819Z,16.30
2018-08-17T01:52:21.939Z,16.30
2018-08-17T01:54:49.617Z,16.20
2018-08-17T01:57:17.338Z,16.20
2018-08-17T01:59:45.224Z,16.20
2018-08-17T02:02:13.410Z,16.20
2018-08-17T02:04:42.271Z,16.10
2018-08-17T02:07:10.252Z,16.00
2018-08-17T02:09:38.178Z,16.00
2018-08-17T02:12:06.170Z,15.90
2018-08-17T02:14:34.093Z,15.90
2018-08-17T02:17:01.967Z,15.90
2018-08-17T02:19:29.865Z,15.90
2018-08-17T02:21:57.665Z,15.80
2018-08-17T02:24:25.461Z,15.90
2018-08-17T02:26:53.275Z,15.90
2018-08-17T02:29:21.320Z,15.90
2018-08-17T02:31:49.924Z,15.90
2018-08-17T02:34:17.759Z,15.90
2018-08-17T02:36:45.605Z,15.90
2018-08-17T02:39:13.649Z,15.90
2018-08-17T02:41:41.526Z,16.00
2018-08-17T02:44:09.438Z,16.00
2018-08-17T02:46:37.378Z,16.00
2018-08-17T02:49:05.601Z,16.00
2018-08-17T02:51:33.428Z,16.00
2018-08-17T02:54:01.195Z,16.00
2018-08-17T02:56:29.095Z,16.00
2018-08-17T02:58:56.931Z,16.00
2018-08-17T03:01:24.988Z,16.00
2018-08-17T03:03:52.734Z,15.90
2018-08-17T03:06:20.607Z,15.90
2018-08-17T03:08:48.452Z,15.90
2018-08-17T03:11:16.329Z,15.90
2018-08-17T03:13:44.392Z,15.90
2018-08-17T03:16:12.243Z,15.90
2018-08-17T03:18:40.400Z,15.80
2018-08-17T03:21:09.095Z,15.80
2018-08-17T03:23:37.887Z,15.70
2018-08-17T03:26:06.249Z,15.70
2018-08-17T03:28:35.430Z,15.60
2018-08-17T03:31:03.512Z,15.60
2018-08-17T03:33:31.875Z,15.60
2018-08-17T03:36:00.634Z,15.50
2018-08-17T03:38:30.055Z,15.50
2018-08-17T03:40:58.023Z,15.60
2018-08-17T03:43:26.053Z,15.50
2018-08-17T03:45:54.514Z,15.40
2018-08-17T03:48:22.307Z,15.50
2018-08-17T03:50:51.799Z,15.40
2018-08-17T03:53:19.656Z,15.40
2018-08-17T03:55:47.595Z,15.30
2018-08-17T03:58:15.455Z,15.40
2018-08-17T04:00:43.320Z,15.40
2018-08-17T04:03:11.247Z,15.40
2018-08-17T04:05:38.983Z,15.30
2018-08-17T04:08:07.023Z,15.30
2018-08-17T04:10:34.985Z,15.30
2018-08-17T04:13:04.847Z,15.30
2018-08-17T04:15:32.860Z,15.30
2018-08-17T04:18:00.726Z,15.30
2018-08-17T04:20:29.052Z,15.30
2018-08-17T04:22:56.827Z,15.40
2018-08-17T04:25:24.673Z,15.40
2018-08-17T04:27:53.823Z,15.40
2018-08-17T04:30:21.621Z,15.40
2018-08-17T04:32:49.240Z,15.50
2018-08-17T04:35:16.987Z,15.50
2018-08-17T04:37:44.748Z,15.50
2018-08-17T04:40:12.610Z,15.50
2018-08-17T04:42:40.393Z,15.60
2018-08-17T04:45:09.741Z,15.70
2018-08-17T04:47:40.234Z,15.90
2018-08-17T04:56:11.404Z,16.30
2018-08-17T04:58:47.435Z,16.50
2018-08-17T05:01:15.439Z,16.50
2018-08-17T05:03:44.746Z,16.60
2018-08-17T05:06:12.752Z,16.60
2018-08-17T05:08:42.390Z,16.60
2018-08-17T05:11:26.175Z,16.60
2018-08-17T05:17:02.302Z,16.70
2018-08-17T05:59:53.483Z,17.50
2018-08-17T06:02:22.278Z,17.40
2018-08-17T07:10:29.131Z,18.50
2018-08-17T07:12:56.698Z,24.70
2018-08-17T07:15:24.323Z,24.50
2018-08-17T07:17:51.982Z,24.20
2018-08-17T07:20:19.509Z,23.70
2018-08-17T07:22:47.315Z,23.30
2018-08-17T07:25:14.927Z,23.00
2018-08-17T07:27:42.612Z,22.70
2018-08-17T07:30:10.117Z,22.50
2018-08-17T07:32:37.659Z,22.40
2018-08-17T07:35:07.064Z,22.40
2018-08-17T07:37:34.821Z,22.70
2018-08-17T07:40:02.727Z,23.00
2018-08-17T07:42:30.292Z,23.40
2018-08-17T07:44:57.997Z,23.90
2018-08-17T07:47:25.704Z,24.80
2018-08-17T07:49:54.515Z,25.40
2018-08-17T07:52:22.372Z,25.60
2018-08-17T07:54:50.064Z,25.80
2018-08-17T07:57:18.501Z,25.70
2018-08-17T07:59:46.425Z,25.60
2018-08-17T08:02:14.307Z,25.60
2018-08-17T08:04:42.748Z,25.50
2018-08-17T08:07:10.575Z,25.20
2018-08-17T08:09:38.384Z,24.80
2018-08-17T08:12:06.917Z,24.30
2018-08-17T08:14:34.822Z,23.90
2018-08-17T08:17:02.594Z,23.50
2018-08-17T08:19:30.411Z,23.10
2018-08-17T08:21:58.384Z,22.80
2018-08-17T08:24:26.156Z,22.60
2018-08-17T08:26:54.047Z,22.40
2018-08-17T08:29:21.923Z,22.30
2018-08-17T08:31:49.938Z,22.30
2018-08-17T08:34:18.114Z,22.20
2018-08-17T08:36:45.752Z,22.20
2018-08-17T08:39:14.238Z,22.20
2018-08-17T08:41:42.218Z,22.10
2018-08-17T08:44:10.105Z,22.10
2018-08-17T08:46:38.371Z,22.00
2018-08-17T08:49:06.311Z,21.80
2018-08-17T08:51:34.318Z,21.70
2018-08-17T08:54:02.297Z,21.70
2018-08-17T08:56:30.279Z,21.70
2018-08-17T08:58:58.244Z,21.70
2018-08-17T09:01:26.109Z,21.60
2018-08-17T09:03:53.917Z,21.50
2018-08-17T09:06:22.316Z,21.30
2018-08-17T09:08:50.130Z,21.20
2018-08-17T09:11:17.980Z,21.00
2018-08-17T09:13:45.691Z,20.90
2018-08-17T09:16:13.846Z,20.90
2018-08-17T09:18:41.621Z,20.90
2018-08-17T09:21:09.660Z,20.80
2018-08-17T09:23:38.733Z,20.60
2018-08-17T09:26:07.621Z,20.50
2018-08-17T09:28:36.230Z,20.50
2018-08-17T09:31:04.643Z,20.50
2018-08-17T09:33:32.808Z,20.40
2018-08-17T09:36:01.061Z,20.30
2018-08-17T09:38:28.937Z,20.30
2018-08-17T09:40:56.756Z,20.40
2018-08-17T09:43:25.213Z,20.40
2018-08-17T09:45:53.690Z,20.40
2018-08-17T09:48:21.439Z,20.30
2018-08-17T09:50:49.060Z,20.40
2018-08-17T09:53:20.145Z,20.40
2018-08-17T09:55:48.925Z,20.60
2018-08-17T09:58:18.312Z,20.70
2018-08-17T10:00:51.894Z,20.70
2018-08-17T10:03:25.536Z,20.60
2018-08-17T10:06:00.301Z,20.50
2018-08-17T10:08:37.342Z,20.40
2018-08-17T10:11:06.645Z,20.30
2018-08-17T10:13:34.439Z,20.10
2018-08-17T10:16:08.897Z,20.10
2018-08-17T10:18:48.517Z,19.90
2018-08-17T10:21:17.061Z,19.70
2018-08-17T10:27:14.048Z,19.10
2018-08-17T10:29:42.649Z,18.80
2018-08-17T10:32:13.165Z,18.60
2018-08-17T10:34:42.972Z,18.50
2018-08-17T10:37:11.579Z,18.40
2018-08-17T10:39:47.749Z,18.40
2018-08-17T10:42:21.745Z,18.50
2018-08-17T10:44:51.871Z,18.60
2018-08-17T10:47:25.941Z,18.70
2018-08-17T10:49:54.645Z,18.90
2018-08-17T10:52:23.628Z,19.20
2018-08-17T10:54:52.475Z,19.30
2018-08-17T10:57:21.088Z,19.30
2018-08-17T10:59:49.016Z,19.30
2018-08-17T11:04:57.232Z,19.40
2018-08-17T11:07:30.204Z,19.40
2018-08-17T11:09:58.142Z,19.50
2018-08-17T11:12:26.888Z,19.30
2018-08-17T11:14:56.044Z,19.30
2018-08-17T11:17:24.706Z,19.30
2018-08-17T11:19:52.853Z,19.20
2018-08-17T11:22:21.451Z,19.20
2018-08-17T11:24:49.896Z,19.20
2018-08-17T11:27:17.657Z,19.30
2018-08-17T11:29:45.734Z,19.30
2018-08-17T11:32:14.281Z,19.30
2018-08-17T11:34:43.822Z,19.40
2018-08-17T11:37:11.735Z,19.50
2018-08-17T11:39:45.834Z,19.60
2018-08-17T11:42:13.722Z,19.80
2018-08-17T11:44:42.391Z,19.90
2018-08-17T11:47:10.240Z,20.10
2018-08-17T11:49:38.194Z,20.20
2018-08-17T11:52:08.027Z,20.30
2018-08-17T11:54:35.973Z,20.40
2018-08-17T11:57:04.508Z,20.70
2018-08-17T11:59:33.060Z,20.90
2018-08-17T12:02:01.746Z,21.20
2018-08-17T12:04:31.532Z,21.30
2018-08-17T12:07:01.537Z,21.20
2018-08-17T12:09:30.252Z,21.30
2018-08-17T12:11:59.019Z,21.40
2018-08-17T12:14:28.066Z,21.70
2018-08-17T12:16:57.918Z,22.00
2018-08-17T12:19:47.499Z,22.30
2018-08-17T12:22:18.253Z,22.60
2018-08-17T12:24:46.603Z,22.40
2018-08-17T12:27:29.363Z,22.30
2018-08-17T12:30:14.719Z,22.00
2018-08-17T12:32:44.183Z,22.10
2018-08-17T12:35:12.618Z,22.70
2018-08-17T12:37:42.656Z,22.80
2018-08-17T12:40:15.621Z,22.80
2018-08-17T12:42:44.390Z,22.50
2018-08-17T12:45:19.148Z,22.30
2018-08-17T12:47:47.424Z,22.10
2018-08-17T12:50:18.884Z,22.20
2018-08-17T12:52:47.300Z,22.40
2018-08-17T12:55:17.657Z,22.60
2018-08-17T12:57:50.840Z,22.70
2018-08-17T13:00:19.892Z,22.60
2018-08-17T13:02:49.352Z,22.70
2018-08-17T13:05:17.271Z,22.80
2018-08-17T13:07:45.583Z,23.00
2018-08-17T13:10:15.450Z,23.20
2018-08-17T13:12:53.084Z,23.10
2018-08-17T13:15:21.196Z,23.00
2018-08-17T13:17:49.361Z,22.90
2018-08-17T13:20:18.124Z,22.70
2018-08-17T13:22:46.674Z,22.60
2018-08-17T13:25:14.503Z,22.30
2018-08-17T13:27:42.705Z,22.10
2018-08-17T13:30:15.600Z,21.70
2018-08-17T13:32:46.858Z,21.30
2018-08-17T13:35:23.014Z,20.90
2018-08-17T13:37:54.983Z,20.60
2018-08-17T13:42:15.594Z,20.60
2018-08-17T13:45:06.954Z,20.50
2018-08-17T13:47:37.097Z,20.60
2018-08-17T13:50:06.556Z,20.50
2018-08-17T13:52:37.443Z,20.60
2018-08-17T13:55:07.461Z,20.70
2018-08-17T13:57:39.287Z,20.80
2018-08-17T14:00:11.125Z,20.90
2018-08-17T14:02:39.539Z,21.00
2018-08-17T14:05:08.885Z,21.10
2018-08-17T14:07:37.401Z,21.30
2018-08-17T14:10:06.986Z,21.60
2018-08-17T14:12:36.245Z,21.80
2018-08-17T14:15:04.911Z,21.90
2018-08-17T14:17:33.148Z,22.00
2018-08-17T14:22:57.916Z,21.70
2018-08-17T14:25:27.638Z,21.30
2018-08-17T14:28:07.361Z,20.90
2018-08-17T14:30:36.670Z,20.50
2018-08-17T14:33:04.849Z,20.40
2018-08-17T14:35:33.518Z,20.40
2018-08-17T14:38:02.016Z,20.40
2018-08-17T14:40:30.429Z,20.40
2018-08-17T14:43:03.395Z,20.40
2018-08-17T14:45:32.706Z,20.30
2018-08-17T14:48:01.136Z,20.30
2018-08-17T14:50:29.241Z,20.30
2018-08-17T14:52:58.920Z,20.20
2018-08-17T14:55:27.835Z,20.20
2018-08-17T14:57:56.658Z,20.20
2018-08-17T15:00:25.968Z,20.30
2018-08-17T15:02:56.910Z,20.40
2018-08-17T15:05:45.470Z,20.40
2018-08-17T15:11:11.507Z,20.60
2018-08-17T15:13:41.331Z,20.70
2018-08-17T15:30:19.840Z,20.90
2018-08-17T15:32:58.223Z,21.10
2018-08-17T15:35:28.582Z,21.10
2018-08-17T15:38:15.089Z,21.20
2018-08-17T15:40:44.124Z,21.20
2018-08-17T15:43:23.270Z,21.30
2018-08-17T15:45:54.524Z,21.40
2018-08-17T15:48:56.314Z,21.80
2018-08-17T15:51:26.236Z,22.20
2018-08-17T15:53:58.751Z,22.20
2018-08-17T15:56:28.506Z,22.10
2018-08-17T15:58:59.307Z,22.40
2018-08-17T16:01:27.856Z,22.40
2018-08-17T16:06:48.804Z,22.10
2018-08-17T16:09:17.521Z,22.30
2018-08-17T16:11:48.778Z,22.70
2018-08-17T16:17:09.236Z,23.10
2018-08-17T16:19:38.523Z,23.30
2018-08-17T16:22:07.015Z,23.40
2018-08-17T16:25:21.991Z,23.40
2018-08-17T16:28:12.149Z,23.40
2018-08-17T16:30:41.264Z,23.30
2018-08-17T16:33:09.383Z,23.40
2018-08-17T16:35:37.514Z,23.50
2018-08-17T16:38:05.734Z,23.20
2018-08-17T16:40:39.235Z,23.10
2018-08-17T16:43:07.183Z,23.00
2018-08-17T16:45:35.214Z,23.00
2018-08-17T16:48:03.289Z,23.00
2018-08-17T16:50:31.972Z,22.90
2018-08-17T16:52:59.718Z,22.90
2018-08-17T16:55:28.272Z,22.70
2018-08-17T16:57:57.431Z,22.60
2018-08-17T17:00:26.227Z,22.70
2018-08-17T17:03:04.624Z,22.70
2018-08-17T17:08:36.328Z,22.60
2018-08-17T17:11:16.752Z,22.60
2018-08-17T17:16:46.663Z,22.30
2018-08-17T17:19:19.052Z,22.30
2018-08-17T17:22:00.906Z,22.20
2018-08-17T17:27:33.755Z,22.00
2018-08-17T17:30:06.216Z,22.00
2018-08-17T17:32:35.772Z,21.80
2018-08-17T17:35:05.604Z,21.70
2018-08-17T17:37:35.695Z,21.60
2018-08-17T17:40:08.090Z,21.40
2018-08-17T17:42:37.513Z,21.30
2018-08-17T17:45:07.501Z,21.20
2018-08-17T17:47:38.227Z,21.00
2018-08-17T17:53:29.922Z,20.80
2018-08-17T17:56:12.481Z,20.50
2018-08-17T17:58:49.710Z,20.40
2018-08-17T18:01:26.646Z,20.30
2018-08-17T18:03:55.992Z,20.20
2018-08-17T18:06:34.308Z,20.10
2018-08-17T18:09:08.864Z,19.90
2018-08-17T18:14:38.713Z,19.70
2018-08-17T18:17:09.876Z,19.60
2018-08-17T18:19:38.562Z,19.50
2018-08-17T18:22:12.157Z,19.40
2018-08-17T18:24:52.158Z,19.30
2018-08-17T18:27:22.988Z,19.20
2018-08-17T18:30:06.013Z,19.10
2018-08-17T18:35:18.239Z,19.00
2018-08-17T18:37:49.159Z,18.90
2018-08-17T18:40:20.742Z,18.80
2018-08-17T18:42:49.817Z,18.80
2018-08-17T18:45:25.832Z,18.60
2018-08-17T18:47:57.660Z,18.50
2018-08-17T18:50:29.881Z,18.40
2018-08-17T18:53:03.059Z,18.30
2018-08-17T18:55:31.906Z,18.20
2018-08-17T18:58:04.995Z,18.20
2018-08-17T19:00:34.323Z,18.10
2018-08-17T19:03:03.908Z,18.00
2018-08-17T19:05:36.495Z,18.00
2018-08-17T19:08:22.987Z,17.90
2018-08-17T19:11:02.848Z,17.90
2018-08-17T19:16:23.703Z,17.80
2018-08-17T19:18:56.573Z,17.70
2018-08-17T19:21:27.097Z,17.60
2018-08-17T20:09:18.550Z,17.60
2018-08-17T20:11:46.825Z,16.20
2018-08-17T20:14:16.896Z,16.10
2018-08-17T20:16:45.345Z,16.10
2018-08-17T20:19:14.158Z,16.10
2018-08-17T20:21:45.612Z,16.10
2018-08-17T20:24:14.200Z,16.00
2018-08-17T20:26:43.618Z,16.00
2018-08-17T20:29:14.290Z,15.90
2018-08-17T20:31:44.919Z,16.00
2018-08-17T20:34:13.515Z,15.90
2018-08-17T20:36:41.213Z,15.80
2018-08-17T20:39:10.699Z,15.60
2018-08-17T20:41:51.552Z,15.60
2018-08-17T20:45:32.591Z,15.60
2018-08-17T20:48:03.935Z,15.60
2018-08-17T20:50:56.946Z,15.50
2018-08-17T20:53:25.303Z,15.50
2018-08-17T20:55:53.143Z,15.40
2018-08-17T20:58:21.039Z,15.30
2018-08-17T21:00:50.313Z,15.20
2018-08-17T21:03:24.221Z,15.10
2018-08-17T21:05:56.019Z,15.10
2018-08-17T21:11:13.470Z,15.10
2018-08-17T21:16:49.898Z,15.10
2018-08-17T21:19:33.153Z,15.10
2018-08-17T21:22:29.355Z,15.10
2018-08-17T21:31:20.461Z,15.00
2018-08-17T21:34:01.391Z,15.00
2018-08-17T21:39:42.189Z,15.00
2018-08-17T21:42:35.481Z,15.00
2018-08-17T21:45:10.130Z,15.00
2018-08-17T21:48:01.974Z,15.00
2018-08-17T21:50:34.287Z,14.90
2018-08-17T21:58:31.252Z,14.90
2018-08-17T22:01:11.285Z,14.80
2018-08-17T22:03:42.948Z,14.80
2018-08-17T22:11:49.365Z,14.80
2018-08-17T22:17:12.200Z,14.90
2018-08-17T22:19:44.068Z,14.80
2018-08-17T22:22:21.790Z,14.80
2018-08-17T22:24:54.858Z,14.80
2018-08-17T22:27:37.808Z,14.70
2018-08-17T22:30:14.076Z,14.70
2018-08-17T22:32:45.609Z,14.60
2018-08-17T22:35:15.387Z,14.60
2018-08-17T22:37:45.638Z,14.50
2018-08-17T22:40:15.249Z,14.50
2018-08-17T22:42:49.558Z,14.40
2018-08-17T22:45:19.213Z,14.40
2018-08-17T22:47:47.208Z,14.40
2018-08-17T22:50:15.934Z,14.40
2018-08-17T22:52:46.836Z,14.30
2018-08-17T22:55:15.850Z,14.20
2018-08-17T22:57:51.987Z,14.20
2018-08-17T23:00:23.995Z,14.10
2018-08-17T23:03:04.637Z,14.10
2018-08-17T23:05:35.901Z,14.10
2018-08-17T23:08:06.734Z,14.00
2018-08-17T23:13:28.494Z,14.00
2018-08-17T23:16:02.962Z,14.00
2018-08-17T23:18:41.641Z,13.90
2018-08-17T23:21:15.908Z,13.80
2018-08-17T23:23:44.754Z,13.70
2018-08-17T23:26:12.831Z,13.60
2018-08-17T23:28:42.797Z,13.40
2018-08-17T23:31:11.678Z,13.40
2018-08-17T23:34:30.447Z,13.30
2018-08-17T23:37:11.292Z,13.30
2018-08-17T23:39:49.880Z,13.20
2018-08-17T23:42:18.321Z,13.10
2018-08-17T23:44:49.284Z,13.10
2018-08-17T23:47:25.926Z,13.10
2018-08-17T23:50:00.345Z,13.10
2018-08-17T23:52:29.809Z,13.00
2018-08-17T23:57:40.339Z,12.90
